Time;durP1;ratioP1;P1;durP2;ratioP2;P2;SDS_P1;SDS_P2;PMS_P1;PMS_P2;Temp;Humidity;BMP_temperature;BMP_pressure;BME280_temperature;BME280_humidity;BME280_pressure;Samples;Min_cycle;Max_cycle;Signal;HPM_P1;HPM_P2
2022/08/17 00:01:06;;;;;;;13.10;5.50;;;18.80;99.90;;;;;;5094828;28;19904;-66
2022/08/17 00:03:37;;;;;;;13.13;5.60;;;18.80;99.90;;;;;;5094802;28;20024;-66
2022/08/17 00:06:10;;;;;;;10.70;5.72;;;18.80;99.90;;;;;;5094799;28;20032;-66
2022/08/17 00:08:49;;;;;;;11.45;5.13;;;18.70;99.90;;;;;;5094873;28;20024;-66
2022/08/17 00:11:22;;;;;;;15.55;6.28;;;18.70;99.90;;;;;;5094556;28;20036;-66
2022/08/17 00:13:52;;;;;;;14.20;5.90;;;18.70;99.90;;;;;;5094154;28;20511;-66
2022/08/17 00:16:25;;;;;;;13.40;5.88;;;18.70;99.90;;;;;;5094489;28;20025;-66
2022/08/17 00:18:51;;;;;;;12.60;6.18;;;18.70;99.90;;;;;;5094870;28;20024;-65
2022/08/17 00:21:19;;;;;;;15.38;7.40;;;18.60;99.90;;;;;;5094851;28;20107;-66
2022/08/17 00:23:45;;;;;;;15.52;7.03;;;18.60;99.90;;;;;;5094318;28;20034;-66
2022/08/17 00:26:12;;;;;;;13.65;6.90;;;18.60;99.90;;;;;;5093939;28;20029;-65
2022/08/17 00:28:39;;;;;;;17.05;7.15;;;18.50;99.90;;;;;;5109960;28;20572;-66
2022/08/17 00:31:07;;;;;;;11.80;5.82;;;18.60;99.90;;;;;;5094261;28;20020;-66
2022/08/17 00:33:33;;;;;;;14.05;6.05;;;18.60;99.90;;;;;;5094220;28;20024;-66
2022/08/17 00:36:01;;;;;;;12.35;5.75;;;18.50;99.90;;;;;;5076375;28;20381;-66
2022/08/17 00:38:28;;;;;;;13.40;5.20;;;18.50;99.90;;;;;;5093992;28;20039;-66
2022/08/17 00:40:59;;;;;;;11.80;5.40;;;18.50;99.90;;;;;;5094074;28;20039;-66
2022/08/17 00:43:46;;;;;;;10.27;4.90;;;18.40;99.90;;;;;;5093715;28;20020;-65
2022/08/17 00:46:14;;;;;;;12.93;5.10;;;18.40;99.90;;;;;;5093860;28;20501;-66
2022/08/17 00:48:41;;;;;;;11.30;4.90;;;18.40;99.90;;;;;;5093911;28;20051;-66
2022/08/17 00:51:06;;;;;;;8.98;4.38;;;18.30;99.90;;;;;;5094013;28;20157;-66
2022/08/17 00:53:37;;;;;;;10.02;4.05;;;18.30;99.90;;;;;;5093889;28;20449;-66
2022/08/17 00:56:06;;;;;;;8.48;3.80;;;18.20;99.90;;;;;;5093902;28;20037;-66
2022/08/17 00:58:34;;;;;;;9.43;3.47;;;18.10;99.90;;;;;;5093722;28;20020;-66
2022/08/17 01:01:02;;;;;;;9.35;3.58;;;18.00;99.90;;;;;;5093557;28;20123;-66
2022/08/17 01:03:30;;;;;;;7.90;3.40;;;18.00;99.90;;;;;;5093607;28;20020;-65
2022/08/17 01:06:00;;;;;;;10.40;3.55;;;17.90;99.90;;;;;;5093521;28;20036;-66
2022/08/17 01:08:28;;;;;;;6.47;2.90;;;18.00;99.90;;;;;;5093483;28;20362;-66
2022/08/17 01:10:56;;;;;;;9.05;3.10;;;17.90;99.90;;;;;;5093392;28;20043;-66
2022/08/17 01:13:24;;;;;;;8.93;2.85;;;17.80;99.90;;;;;;5093451;28;20103;-66
2022/08/17 01:15:56;;;;;;;7.88;3.05;;;17.70;99.90;;;;;;5093359;28;20031;-66
2022/08/17 01:18:23;;;;;;;8.80;2.80;;;17.70;99.90;;;;;;5093459;28;20458;-66
2022/08/17 01:20:52;;;;;;;8.15;3.25;;;17.60;99.90;;;;;;5093383;28;20031;-66
2022/08/17 01:23:19;;;;;;;9.48;3.15;;;17.60;99.90;;;;;;5093261;28;20031;-66
2022/08/17 01:25:54;;;;;;;7.22;2.95;;;17.50;99.90;;;;;;5092667;28;20032;-66
2022/08/17 01:28:20;;;;;;;7.20;2.55;;;17.50;99.90;;;;;;5093305;28;20021;-66
2022/08/17 01:30:48;;;;;;;8.80;2.85;;;17.50;99.90;;;;;;5093063;28;20161;-66
2022/08/17 01:33:14;;;;;;;5.55;2.28;;;17.50;99.90;;;;;;5093484;28;20505;-66
2022/08/17 01:35:40;;;;;;;7.78;2.90;;;17.50;99.90;;;;;;5092946;28;20020;-66
2022/08/17 01:38:06;;;;;;;8.82;2.75;;;17.60;99.90;;;;;;5092892;28;20028;-66
2022/08/17 01:40:38;;;;;;;7.28;2.88;;;17.50;99.90;;;;;;5092644;28;20019;-66
2022/08/17 01:43:21;;;;;;;5.97;2.40;;;17.50;99.90;;;;;;5092837;28;20395;-66
2022/08/17 01:45:50;;;;;;;7.68;2.25;;;17.50;99.90;;;;;;5092718;28;20059;-66
2022/08/17 01:48:18;;;;;;;4.85;2.50;;;17.50;99.90;;;;;;5093041;28;20430;-65
2022/08/17 01:50:46;;;;;;;10.85;2.55;;;17.50;99.90;;;;;;5092857;28;20020;-66
2022/08/17 01:53:23;;;;;;;6.43;2.40;;;17.40;99.90;;;;;;5092169;28;20104;-66
2022/08/17 01:55:50;;;;;;;6.25;2.40;;;17.40;99.90;;;;;;5092202;28;20024;-66
2022/08/17 01:58:17;;;;;;;6.45;2.70;;;17.40;99.90;;;;;;5092706;28;20496;-66
2022/08/17 02:00:44;;;;;;;6.68;2.42;;;17.40;99.90;;;;;;5092492;28;20048;-66
2022/08/17 02:03:11;;;;;;;7.47;2.60;;;17.30;99.90;;;;;;5092883;28;20077;-66
2022/08/17 02:05:38;;;;;;;7.05;2.53;;;17.30;99.90;;;;;;5092364;28;20040;-66
2022/08/17 02:08:06;;;;;;;5.07;2.45;;;17.30;99.90;;;;;;5092436;28;20440;-66
2022/08/17 02:10:32;;;;;;;9.38;2.80;;;17.30;99.90;;;;;;5092145;28;20032;-66
2022/08/17 02:12:59;;;;;;;7.50;2.20;;;17.20;99.90;;;;;;5092271;28;20073;-66
2022/08/17 02:15:25;;;;;;;5.65;2.70;;;17.30;99.90;;;;;;5107930;28;20546;-66
2022/08/17 02:17:50;;;;;;;6.57;2.70;;;17.20;99.90;;;;;;5092842;28;20039;-66
2022/08/17 02:20:17;;;;;;;6.85;2.60;;;17.20;99.90;;;;;;5092358;28;20475;-66
2022/08/17 02:22:46;;;;;;;6.50;2.65;;;17.30;99.90;;;;;;5092277;28;20084;-66
2022/08/17 02:25:16;;;;;;;8.13;2.95;;;17.30;99.90;;;;;;5091778;28;20410;-66
2022/08/17 02:27:42;;;;;;;5.47;2.42;;;17.20;99.90;;;;;;5092872;28;20107;-66
2022/08/17 02:30:12;;;;;;;7.20;2.67;;;17.20;99.90;;;;;;5092296;28;20516;-66
2022/08/17 02:32:38;;;;;;;6.53;2.38;;;17.20;99.90;;;;;;5092307;28;20047;-66
2022/08/17 02:35:04;;;;;;;6.43;2.55;;;17.20;99.90;;;;;;5092093;28;20464;-66
2022/08/17 02:37:30;;;;;;;7.57;2.85;;;17.30;99.90;;;;;;5092049;28;20153;-66
2022/08/17 02:39:57;;;;;;;7.40;2.75;;;17.30;99.90;;;;;;5091836;28;20035;-66
2022/08/17 02:42:32;;;;;;;6.95;3.13;;;17.40;99.90;;;;;;5092575;28;20032;-66
2022/08/17 02:44:59;;;;;;;9.38;3.03;;;17.30;99.90;;;;;;5091766;28;20516;-66
2022/08/17 02:47:25;;;;;;;8.90;3.28;;;17.30;99.90;;;;;;5092009;28;20077;-67
2022/08/17 02:49:52;;;;;;;6.35;3.03;;;17.30;99.90;;;;;;5092045;28;20036;-66
2022/08/17 02:52:17;;;;;;;7.47;3.20;;;17.30;99.90;;;;;;5091981;28;20017;-66
2022/08/17 02:54:44;;;;;;;9.93;3.72;;;17.30;99.90;;;;;;5092050;28;20024;-65
2022/08/17 02:57:10;;;;;;;12.93;3.58;;;17.30;99.90;;;;;;5092019;28;20055;-66
2022/08/17 02:59:37;;;;;;;10.50;3.88;;;17.30;99.90;;;;;;5091798;28;20035;-66
2022/08/17 03:02:07;;;;;;;12.50;3.85;;;17.30;99.90;;;;;;5092404;28;20492;-66
2022/08/17 03:04:33;;;;;;;9.18;4.07;;;17.30;99.90;;;;;;5091806;28;20027;-66
2022/08/17 03:06:59;;;;;;;7.95;3.70;;;17.30;99.90;;;;;;5093930;28;20444;-66
2022/08/17 03:09:24;;;;;;;9.52;4.30;;;17.30;99.90;;;;;;5096131;28;20035;-66
2022/08/17 03:11:50;;;;;;;9.70;4.00;;;17.20;99.90;;;;;;5095697;28;20051;-66
2022/08/17 03:14:17;;;;;;;11.45;4.78;;;17.30;99.90;;;;;;5095713;28;20479;-66
2022/08/17 03:16:43;;;;;;;8.40;4.20;;;17.30;99.90;;;;;;5095861;28;20024;-66
2022/08/17 03:19:09;;;;;;;9.23;4.00;;;17.30;99.90;;;;;;5111507;28;20020;-66
2022/08/17 03:21:35;;;;;;;9.10;4.35;;;17.30;99.90;;;;;;5095338;28;20036;-66
2022/08/17 03:24:01;;;;;;;11.10;4.93;;;17.20;99.90;;;;;;5095969;28;20095;-66
2022/08/17 03:26:27;;;;;;;11.85;4.88;;;17.30;99.90;;;;;;5095722;28;20442;-66
2022/08/17 03:28:53;;;;;;;11.25;5.53;;;17.30;99.90;;;;;;5095542;28;20021;-66
2022/08/17 03:31:20;;;;;;;9.23;4.93;;;17.30;99.90;;;;;;5095665;28;20031;-66
2022/08/17 03:33:46;;;;;;;10.32;4.80;;;17.30;99.90;;;;;;5095593;28;20039;-66
2022/08/17 03:36:11;;;;;;;12.13;5.43;;;17.30;99.90;;;;;;5095268;28;20500;-66
2022/08/17 03:38:37;;;;;;;10.02;5.30;;;17.30;99.90;;;;;;5095136;28;20380;-66
2022/08/17 03:41:05;;;;;;;10.32;5.38;;;17.30;99.90;;;;;;5095661;28;20058;-66
2022/08/17 03:43:32;;;;;;;11.13;4.72;;;17.30;99.90;;;;;;5095118;28;20098;-65
2022/08/17 03:57:07;;;;;;;10.40;4.25;;;17.20;99.90;;;;;;5095194;28;20462;-66
2022/08/17 03:59:34;;;;;;;14.18;4.80;;;17.20;99.90;;;;;;5095079;28;20089;-66
2022/08/17 04:02:07;;;;;;;8.90;4.78;;;17.20;99.90;;;;;;5095437;28;20028;-66
2022/08/17 04:04:34;;;;;;;14.05;5.13;;;17.20;99.90;;;;;;5094859;28;20036;-65
2022/08/17 04:07:00;;;;;;;11.40;4.85;;;17.20;99.90;;;;;;5094539;28;20052;-67
2022/08/17 04:09:26;;;;;;;11.55;4.75;;;17.20;99.90;;;;;;5095028;28;20516;-66
2022/08/17 04:11:52;;;;;;;9.85;4.78;;;17.20;99.90;;;;;;5094924;28;20099;-66
2022/08/17 04:14:19;;;;;;;12.40;4.78;;;17.10;99.90;;;;;;5094775;28;20032;-66
2022/08/17 04:16:44;;;;;;;11.90;4.85;;;17.10;99.90;;;;;;5094817;28;20408;-66
2022/08/17 04:19:10;;;;;;;14.07;4.80;;;17.20;99.90;;;;;;5094717;28;20035;-66
2022/08/17 04:21:36;;;;;;;9.13;4.82;;;17.10;99.90;;;;;;5094324;28;20027;-66
2022/08/17 04:24:02;;;;;;;9.32;4.68;;;17.10;99.90;;;;;;5094772;28;20029;-66
2022/08/17 04:26:28;;;;;;;8.60;4.32;;;17.10;99.90;;;;;;5094896;28;20034;-66
2022/08/17 04:28:54;;;;;;;9.93;4.43;;;17.00;99.90;;;;;;5094512;28;20016;-66
2022/08/17 04:31:20;;;;;;;10.82;4.90;;;17.10;99.90;;;;;;5094534;28;20028;-66
2022/08/17 04:33:46;;;;;;;12.75;5.28;;;17.00;99.90;;;;;;5094004;28;20024;-65
2022/08/17 04:36:14;;;;;;;16.05;5.75;;;17.00;99.90;;;;;;5094435;28;20051;-66
2022/08/17 04:38:43;;;;;;;9.80;5.20;;;17.00;99.90;;;;;;5094503;28;20350;-66
2022/08/17 04:43:57;;;;;;;12.20;5.95;;;17.00;99.90;;;;;;5094400;28;20055;-66
2022/08/17 04:46:35;;;;;;;11.13;5.60;;;17.00;99.90;;;;;;5094183;28;20020;-66
2022/08/17 04:49:07;;;;;;;9.98;5.25;;;17.00;99.90;;;;;;5093765;28;20388;-66
2022/08/17 04:51:40;;;;;;;7.90;5.03;;;17.00;99.90;;;;;;5094058;28;20576;-66
2022/08/17 04:54:10;;;;;;;7.95;4.88;;;17.00;99.90;;;;;;5094215;28;20046;-66
2022/08/17 04:56:36;;;;;;;9.13;4.97;;;16.90;99.90;;;;;;5094142;28;20473;-66
2022/08/17 04:59:08;;;;;;;11.60;6.00;;;17.00;99.90;;;;;;5094235;28;20024;-66
2022/08/17 05:01:36;;;;;;;9.45;5.25;;;16.90;99.90;;;;;;5093739;28;20499;-66
2022/08/17 05:04:09;;;;;;;9.40;5.43;;;16.90;99.90;;;;;;5093280;28;20031;-66
2022/08/17 05:06:34;;;;;;;9.45;5.22;;;16.90;99.90;;;;;;5093943;28;20024;-66
2022/08/17 05:09:01;;;;;;;10.10;5.10;;;17.00;99.90;;;;;;5093755;28;20028;-66
2022/08/17 05:11:28;;;;;;;11.38;5.47;;;16.90;99.90;;;;;;5094134;28;20054;-66
2022/08/17 05:13:55;;;;;;;8.50;5.13;;;16.90;99.90;;;;;;5093605;28;20051;-66
2022/08/17 05:16:23;;;;;;;10.85;4.80;;;16.90;99.90;;;;;;5093570;28;20085;-66
2022/08/17 05:18:48;;;;;;;12.57;5.93;;;16.80;99.90;;;;;;5093209;28;20020;-66
2022/08/17 05:21:15;;;;;;;9.60;6.07;;;16.90;99.90;;;;;;5093644;28;20478;-66
2022/08/17 05:23:42;;;;;;;11.23;5.90;;;16.90;99.90;;;;;;5093843;28;20016;-66
2022/08/17 05:26:09;;;;;;;11.32;5.43;;;16.90;99.90;;;;;;5093529;28;20060;-66
2022/08/17 05:28:34;;;;;;;10.98;6.13;;;16.90;99.90;;;;;;5092638;28;20020;-66
2022/08/17 05:31:02;;;;;;;10.90;5.93;;;16.90;99.90;;;;;;5093347;28;20428;-66
2022/08/17 05:33:30;;;;;;;12.30;6.47;;;16.90;99.90;;;;;;5092878;28;20042;-66
2022/08/17 05:35:58;;;;;;;10.52;6.05;;;16.90;99.90;;;;;;5093350;28;20035;-66
2022/08/17 05:38:27;;;;;;;10.80;6.28;;;17.00;99.90;;;;;;5093115;28;20028;-66
2022/08/17 05:40:54;;;;;;;11.20;6.22;;;17.00;99.90;;;;;;5093524;28;20404;-66
2022/08/17 05:43:31;;;;;;;11.35;6.40;;;17.00;99.90;;;;;;5093161;28;20036;-66
2022/08/17 05:46:23;;;;;;;14.00;6.18;;;17.00;99.90;;;;;;5092903;28;20540;-66
2022/08/17 05:48:53;;;;;;;13.75;6.55;;;17.00;99.90;;;;;;5093074;28;20452;-66
2022/08/17 05:51:30;;;;;;;13.23;6.65;;;17.10;99.90;;;;;;5092943;28;20077;-66
2022/08/17 05:54:14;;;;;;;14.23;7.30;;;17.20;99.90;;;;;;5093013;28;20039;-66
2022/08/17 05:56:39;;;;;;;;;;;17.30;99.90;;;;;;5093794;28;20117;-65
2022/08/17 05:59:27;;;;;;;8.45;4.90;;;17.30;99.90;;;;;;5093164;28;19908;-65
2022/08/17 06:02:16;;;;;;;11.23;6.70;;;17.30;99.90;;;;;;5093051;28;20043;-66
2022/08/17 06:05:00;;;;;;;12.32;6.70;;;17.40;99.90;;;;;;5093432;28;20046;-66
2022/08/17 06:07:33;;;;;;;12.65;7.55;;;17.40;99.90;;;;;;5093554;28;20020;-66
2022/08/17 06:10:11;;;;;;;13.25;7.15;;;17.40;99.90;;;;;;5092946;28;20027;-66
2022/08/17 06:12:56;;;;;;;10.88;7.13;;;17.30;99.90;;;;;;5092705;28;20024;-66
2022/08/17 06:15:43;;;;;;;12.15;6.70;;;17.40;99.90;;;;;;5092223;28;20030;-66
2022/08/17 06:18:10;;;;;;;14.15;6.53;;;17.30;99.90;;;;;;5092637;28;20028;-66
2022/08/17 06:20:49;;;;;;;13.32;6.40;;;17.30;99.90;;;;;;5092577;28;20384;-66
2022/08/17 06:23:23;;;;;;;12.65;5.70;;;17.40;99.90;;;;;;5092574;28;20024;-66
2022/08/17 06:25:54;;;;;;;9.77;5.35;;;17.40;99.90;;;;;;5092336;28;20043;-66
2022/08/17 06:28:48;;;;;;;12.25;6.00;;;17.40;99.90;;;;;;5092471;28;20392;-66
2022/08/17 06:31:27;;;;;;;9.57;5.05;;;17.40;99.90;;;;;;5091898;28;20565;-66
2022/08/17 06:33:56;;;;;;;11.30;5.50;;;17.40;99.90;;;;;;5092235;28;20024;-66
2022/08/17 06:36:36;;;;;;;11.07;5.68;;;17.50;99.90;;;;;;5092319;28;20416;-66
2022/08/17 06:39:43;;;;;;;11.48;5.43;;;17.80;99.90;;;;;;5092202;28;20048;-66
2022/08/17 06:42:30;;;;;;;13.57;6.00;;;18.10;99.90;;;;;;5092125;28;20032;-66
2022/08/17 06:45:09;;;;;;;10.18;5.82;;;18.50;99.90;;;;;;5091571;28;20459;-66
2022/08/17 06:48:01;;;;;;;9.45;4.90;;;18.70;99.90;;;;;;5092286;28;20096;-66
2022/08/17 06:50:35;;;;;;;9.90;4.65;;;18.80;99.90;;;;;;5092033;28;20032;-66
2022/08/17 06:53:09;;;;;;;9.45;4.47;;;19.00;99.90;;;;;;5092083;28;20024;-66
2022/08/17 06:56:03;;;;;;;12.02;4.50;;;19.00;99.90;;;;;;5092331;28;20063;-66
2022/08/17 06:58:32;;;;;;;10.18;4.65;;;19.20;99.90;;;;;;5092379;28;20077;-66
2022/08/17 07:01:08;;;;;;;11.15;4.55;;;19.40;99.90;;;;;;5091650;28;20024;-66
2022/08/17 07:04:05;;;;;;;7.53;4.20;;;19.80;99.90;;;;;;5092233;28;20066;-66
2022/08/17 07:08:00;;;;;;;8.75;4.20;;;19.80;99.90;;;;;;5092003;28;20571;-66
2022/08/17 07:09:49;;;;;;;7.85;3.90;;;20.10;99.90;;;;;;5090780;28;20020;-66
2022/08/17 07:12:21;;;;;;;9.35;4.07;;;20.20;99.90;;;;;;5091841;28;20032;-66
2022/08/17 07:15:13;;;;;;;8.27;3.90;;;20.40;99.90;;;;;;5091623;28;20055;-66
2022/08/17 07:17:41;;;;;;;9.65;3.85;;;20.80;99.90;;;;;;5092186;28;20026;-66
2022/08/17 07:20:10;;;;;;;9.65;3.70;;;21.20;99.90;;;;;;5091918;28;20036;-66
2022/08/17 07:22:40;;;;;;;8.40;4.00;;;21.60;99.90;;;;;;5092029;28;20427;-66
2022/08/17 07:25:10;;;;;;;5.90;3.42;;;21.90;99.90;;;;;;5091702;28;20039;-66
2022/08/17 07:27:41;;;;;;;6.35;3.28;;;22.20;99.90;;;;;;5091651;28;20536;-66
2022/08/17 07:30:09;;;;;;;7.18;3.25;;;22.50;99.90;;;;;;5091434;28;20034;-67
2022/08/17 07:32:40;;;;;;;7.25;3.40;;;22.70;99.90;;;;;;5091846;28;20441;-67
2022/08/17 07:35:16;;;;;;;8.95;3.70;;;22.70;99.90;;;;;;5092004;28;20032;-66
2022/08/17 07:37:52;;;;;;;5.45;3.28;;;22.60;99.90;;;;;;5092240;28;20024;-66
2022/08/17 07:40:21;;;;;;;7.15;3.03;;;22.50;99.90;;;;;;5091494;28;20032;-66
2022/08/17 07:43:10;;;;;;;8.77;3.55;;;22.40;99.90;;;;;;5091259;28;20052;-67
2022/08/17 07:48:35;;;;;;;7.68;3.38;;;22.10;99.90;;;;;;5092208;28;20031;-66
2022/08/17 07:51:18;;;;;;;6.82;3.40;;;21.90;99.90;;;;;;5091744;28;20030;-67
2022/08/17 07:53:44;;;;;;;5.30;3.05;;;21.80;99.90;;;;;;5095206;28;20022;-66
2022/08/17 07:56:29;;;;;;;5.72;2.95;;;21.70;99.90;;;;;;5095230;28;20024;-67
2022/08/17 07:59:14;;;;;;;7.22;2.95;;;21.60;99.90;;;;;;5094854;28;20047;-67
2022/08/17 08:01:43;;;;;;;5.13;2.78;;;21.50;99.90;;;;;;5095071;28;20028;-66
2022/08/17 08:04:33;;;;;;;6.85;2.72;;;21.40;99.90;;;;;;5095379;28;20103;-66
2022/08/17 08:07:01;;;;;;;4.15;2.60;;;21.40;99.90;;;;;;5095328;28;20396;-67
2022/08/17 08:09:34;;;;;;;7.50;3.13;;;21.30;99.90;;;;;;5094864;28;20157;-67
2022/08/17 08:12:23;;;;;;;7.43;2.30;;;21.20;99.90;;;;;;5094505;28;20088;-66
2022/08/17 08:15:21;;;;;;;6.28;2.72;;;21.10;99.90;;;;;;5094776;28;20070;-66
2022/08/17 08:17:51;;;;;;;5.28;2.40;;;21.10;99.90;;;;;;5094742;28;20066;-67
2022/08/17 08:20:20;;;;;;;5.63;2.55;;;21.10;99.90;;;;;;5094708;28;20024;-66
2022/08/17 08:22:48;;;;;;;6.07;2.50;;;21.10;99.90;;;;;;5094652;28;20016;-67
2022/08/17 08:25:20;;;;;;;6.32;2.40;;;21.10;99.90;;;;;;5094796;28;20481;-67
2022/08/17 08:28:13;;;;;;;7.32;2.35;;;21.10;99.90;;;;;;5093741;28;20595;-65
2022/08/17 08:30:48;;;;;;;6.20;2.53;;;21.20;99.90;;;;;;5094738;28;20034;-65
2022/08/17 08:33:27;;;;;;;7.20;2.47;;;21.40;99.90;;;;;;5094325;28;20050;-65
2022/08/17 08:36:20;;;;;;;7.07;2.15;;;21.70;99.90;;;;;;5094418;28;20024;-65
2022/08/17 08:38:53;;;;;;;5.45;2.42;;;22.00;99.90;;;;;;5090152;28;20497;-65
2022/08/17 08:41:28;;;;;;;6.82;2.65;;;22.20;99.90;;;;;;5094028;28;20021;-65
2022/08/17 08:43:57;;;;;;;6.95;2.50;;;22.60;99.90;;;;;;5094333;28;20515;-65
2022/08/17 08:46:40;;;;;;;5.78;1.92;;;23.00;99.90;;;;;;5094302;28;20062;-65
2022/08/17 08:49:41;;;;;;;7.35;2.47;;;23.50;99.90;;;;;;5093966;28;20038;-65
2022/08/17 08:52:18;;;;;;;7.13;2.30;;;24.10;99.90;;;;;;5093973;28;20028;-65
2022/08/17 08:54:55;;;;;;;5.82;2.20;;;24.60;99.90;;;;;;5093879;28;20028;-65
2022/08/17 08:57:29;;;;;;;6.80;2.22;;;24.80;99.90;;;;;;5093989;28;20021;-65
2022/08/17 09:00:11;;;;;;;7.88;2.88;;;25.00;99.90;;;;;;5094215;28;20028;-65
2022/08/17 09:02:52;;;;;;;8.05;3.10;;;25.20;99.90;;;;;;5093764;28;20552;-65
2022/08/17 09:05:47;;;;;;;7.95;3.75;;;25.30;99.90;;;;;;5093776;28;20484;-67
2022/08/17 09:08:27;;;;;;;9.75;4.57;;;25.30;99.90;;;;;;5093949;28;20043;-67
2022/08/17 09:10:55;;;;;;;10.20;4.38;;;25.10;99.90;;;;;;5093750;28;20532;-67
2022/08/17 09:13:42;;;;;;;9.55;4.32;;;25.10;99.90;;;;;;5093558;28;20101;-67
2022/08/17 09:16:35;;;;;;;11.57;4.38;;;25.00;99.90;;;;;;5093683;28;20495;-67
2022/08/17 09:19:14;;;;;;;8.93;3.70;;;25.00;99.90;;;;;;5093541;28;20035;-67
2022/08/17 09:21:42;;;;;;;5.38;2.45;;;24.80;99.90;;;;;;5093616;28;20280;-67
2022/08/17 09:24:20;;;;;;;5.18;1.88;;;24.60;99.90;;;;;;5093407;28;20030;-66
2022/08/17 09:27:01;;;;;;;12.40;3.08;;;24.30;99.90;;;;;;5093485;28;20031;-67
2022/08/17 09:29:33;;;;;;;7.07;2.40;;;23.80;99.90;;;;;;5109058;28;20377;-66
2022/08/17 09:32:19;;;;;;;6.47;1.80;;;23.70;99.90;;;;;;5093337;28;20561;-66
2022/08/17 09:34:55;;;;;;;4.47;1.50;;;23.40;99.90;;;;;;5092123;28;20258;-66
2022/08/17 09:37:36;;;;;;;3.90;1.50;;;23.20;99.90;;;;;;5093372;28;20020;-66
2022/08/17 09:40:31;;;;;;;4.82;1.40;;;23.10;99.90;;;;;;5092899;28;20442;-66
2022/08/17 09:43:29;;;;;;;4.18;1.40;;;23.00;99.90;;;;;;5091837;28;20047;-66
2022/08/17 09:46:01;;;;;;;5.80;1.98;;;22.80;99.90;;;;;;5093261;28;20066;-66
2022/08/17 09:48:40;;;;;;;4.57;1.30;;;22.60;99.90;;;;;;5093160;28;20085;-66
2022/08/17 09:51:14;;;;;;;4.13;1.55;;;22.60;99.90;;;;;;5092934;28;20085;-66
2022/08/17 09:53:40;;;;;;;4.20;1.40;;;22.60;99.90;;;;;;5092619;28;20473;-66
2022/08/17 09:56:09;;;;;;;5.05;1.65;;;22.60;99.90;;;;;;5092998;28;20153;-66
2022/08/17 09:58:55;;;;;;;5.47;1.90;;;22.50;99.90;;;;;;5093053;28;20031;-66
2022/08/17 10:01:35;;;;;;;7.95;1.75;;;22.40;99.90;;;;;;5093051;28;20024;-66
2022/08/17 10:04:01;;;;;;;6.80;1.70;;;22.30;99.90;;;;;;5092714;28;20473;-66
2022/08/17 10:06:32;;;;;;;6.25;2.15;;;22.20;99.90;;;;;;5092668;28;20027;-66
2022/08/17 10:09:14;;;;;;;4.82;1.80;;;22.30;99.90;;;;;;5092424;28;20031;-67
2022/08/17 10:12:19;;;;;;;5.85;2.22;;;22.40;99.90;;;;;;5092804;28;20120;-67
2022/08/17 10:15:09;;;;;;;5.35;1.92;;;22.60;99.90;;;;;;5091982;28;20111;-66
2022/08/17 10:18:02;;;;;;;4.45;1.73;;;22.60;99.90;;;;;;5092511;28;20020;-67
2022/08/17 10:20:41;;;;;;;7.68;1.95;;;22.80;99.90;;;;;;5092463;28;20031;-66
2022/08/17 10:26:13;;;;;;;6.32;2.30;;;22.90;99.90;;;;;;5092349;28;20035;-66
2022/08/17 10:28:59;;;;;;;7.50;2.72;;;23.00;99.90;;;;;;5092823;28;20431;-66
2022/08/17 10:31:43;;;;;;;8.55;3.47;;;23.00;99.90;;;;;;5091975;28;20374;-67
2022/08/17 10:34:18;;;;;;;8.88;4.10;;;23.20;99.90;;;;;;5092591;28;20102;-66
2022/08/17 10:36:51;;;;;;;9.23;4.30;;;23.30;99.90;;;;;;5092300;28;20424;-67
2022/08/17 10:39:26;;;;;;;10.90;4.18;;;23.40;99.90;;;;;;5092077;28;20124;-67
2022/08/17 10:41:56;;;;;;;9.75;4.30;;;23.50;99.90;;;;;;5107927;28;20038;-66
2022/08/17 10:44:45;;;;;;;6.82;3.45;;;23.60;99.90;;;;;;5092062;28;20044;-66
2022/08/17 10:47:16;;;;;;;7.00;3.03;;;23.70;99.90;;;;;;5092219;28;20028;-66
2022/08/17 10:49:48;;;;;;;8.57;2.60;;;23.90;99.90;;;;;;5092019;28;20051;-67
2022/08/17 10:52:24;;;;;;;5.15;2.00;;;23.90;99.90;;;;;;5092117;28;20429;-66
2022/08/17 10:54:50;;;;;;;5.82;1.85;;;23.90;99.90;;;;;;5092048;28;20489;-66
2022/08/17 10:57:36;;;;;;;4.32;1.55;;;24.00;99.90;;;;;;5092287;28;20023;-66
2022/08/17 11:00:14;;;;;;;4.68;1.50;;;24.00;99.90;;;;;;5092558;28;20034;-66
2022/08/17 11:02:56;;;;;;;5.90;1.40;;;24.00;99.90;;;;;;5091983;28;20048;-66
2022/08/17 11:05:27;;;;;;;5.32;1.27;;;23.90;99.90;;;;;;5091554;28;20036;-66
2022/08/17 11:08:04;;;;;;;4.25;1.30;;;23.90;99.90;;;;;;5092184;28;20024;-67
2022/08/17 11:11:08;;;;;;;4.13;1.00;;;23.90;99.90;;;;;;5092369;28;20039;-66
2022/08/17 11:13:43;;;;;;;5.18;1.40;;;23.90;99.90;;;;;;5069371;28;20037;-66
2022/08/17 11:16:46;;;;;;;5.03;1.50;;;23.80;99.90;;;;;;5069901;28;20090;-66
2022/08/17 11:19:38;;;;;;;4.28;1.30;;;23.80;99.90;;;;;;5069909;28;20040;-66
2022/08/17 11:22:40;;;;;;;7.13;1.40;;;23.90;99.90;;;;;;5029314;28;20080;-66
2022/08/17 11:25:16;;;;;;;4.88;1.30;;;23.90;99.90;;;;;;5029515;28;20049;-66
2022/08/17 11:27:44;;;;;;;5.20;1.60;;;23.90;99.90;;;;;;5031828;28;20037;-66
2022/08/17 11:30:34;;;;;;;4.80;1.52;;;23.90;99.90;;;;;;5033347;28;20030;-66
2022/08/17 11:33:28;;;;;;;3.20;1.20;;;24.10;99.90;;;;;;5033028;28;20120;-66
2022/08/17 11:36:13;;;;;;;4.75;1.50;;;24.00;99.90;;;;;;5032893;28;20037;-66
2022/08/17 11:39:01;;;;;;;5.35;1.38;;;24.00;99.90;;;;;;5033018;28;20030;-67
2022/08/17 11:41:42;;;;;;;5.05;1.70;;;24.20;99.90;;;;;;5033170;28;20033;-67
2022/08/17 11:44:30;;;;;;;4.82;1.40;;;24.40;99.90;;;;;;5032629;28;20033;-66
2022/08/17 11:52:55;;;;;;;3.47;1.20;;;24.70;99.90;;;;;;5032799;28;20036;-67
2022/08/17 11:55:34;;;;;;;3.65;1.23;;;25.10;99.90;;;;;;5016660;28;20025;-66
2022/08/17 11:58:38;;;;;;;3.42;1.60;;;25.20;99.90;;;;;;5038489;28;20560;-65
2022/08/17 12:01:12;;;;;;;2.28;1.05;;;25.10;99.90;;;;;;5052637;28;20036;-65
2022/08/17 12:03:41;;;;;;;2.83;1.10;;;24.90;99.90;;;;;;5052044;28;20060;-65
2022/08/17 12:06:18;;;;;;;2.70;1.10;;;24.90;99.90;;;;;;5052464;28;20064;-65
2022/08/17 12:08:53;;;;;;;2.58;1.10;;;24.80;99.90;;;;;;5052543;28;20067;-65
2022/08/17 12:11:27;;;;;;;3.65;1.40;;;24.80;99.90;;;;;;5052490;28;20044;-66
2022/08/17 12:13:57;;;;;;;3.15;1.27;;;24.70;99.90;;;;;;5052598;28;20032;-65
2022/08/17 12:16:23;;;;;;;2.10;1.02;;;24.70;99.90;;;;;;5052393;28;20485;-66
2022/08/17 12:19:01;;;;;;;1.50;0.80;;;24.60;99.90;;;;;;5052098;28;20021;-66
2022/08/17 12:21:45;;;;;;;1.80;0.93;;;24.40;99.90;;;;;;5052739;28;20137;-66
2022/08/17 12:24:27;;;;;;;1.63;0.80;;;24.20;99.90;;;;;;5052154;28;20036;-66
2022/08/17 12:26:58;;;;;;;3.90;1.00;;;23.70;99.90;;;;;;5052188;28;20025;-66
2022/08/17 12:29:24;;;;;;;1.77;0.80;;;23.30;99.90;;;;;;5052293;28;20033;-66
2022/08/17 12:31:53;;;;;;;2.88;1.00;;;23.40;99.90;;;;;;5052096;28;20044;-67
2022/08/17 12:34:49;;;;;;;3.05;0.90;;;23.30;99.90;;;;;;5052130;28;20060;-66
2022/08/17 12:37:23;;;;;;;2.28;0.90;;;23.30;99.90;;;;;;5060403;28;20043;-66
2022/08/17 12:39:54;;;;;;;3.45;1.00;;;23.50;99.90;;;;;;5089590;28;20024;-66
2022/08/17 12:42:23;;;;;;;3.28;1.10;;;23.50;99.90;;;;;;5094388;28;20024;-66
2022/08/17 12:44:48;;;;;;;3.38;1.05;;;23.30;99.90;;;;;;5094111;28;20047;-66
2022/08/17 12:47:17;;;;;;;1.65;0.85;;;22.70;99.90;;;;;;5094393;28;20103;-66
2022/08/17 12:49:47;;;;;;;2.40;1.08;;;22.30;99.90;;;;;;5094287;28;20024;-66
2022/08/17 12:52:19;;;;;;;3.22;1.30;;;22.20;99.90;;;;;;5094488;28;20020;-66
2022/08/17 12:55:05;;;;;;;3.15;0.90;;;22.40;99.90;;;;;;5094226;28;20032;-66
2022/08/17 12:57:37;;;;;;;5.30;1.10;;;22.30;99.90;;;;;;5109869;28;20035;-66
2022/08/17 13:00:34;;;;;;;3.83;1.30;;;21.90;99.90;;;;;;5094132;28;20118;-66
2022/08/17 13:03:08;;;;;;;3.03;1.10;;;21.90;99.90;;;;;;5093219;28;20427;-66
2022/08/17 13:06:01;;;;;;;4.75;1.20;;;21.80;99.90;;;;;;5093859;28;20549;-67
2022/08/17 13:08:32;;;;;;;1.92;1.10;;;22.00;99.90;;;;;;5091586;28;20043;-66
2022/08/17 13:11:19;;;;;;;4.30;1.13;;;22.10;99.90;;;;;;5093887;28;20102;-65
2022/08/17 13:13:50;;;;;;;3.35;1.30;;;22.00;99.90;;;;;;5093511;28;20032;-66
2022/08/17 13:16:23;;;;;;;4.30;1.20;;;22.00;99.90;;;;;;5093312;28;20032;-66
2022/08/17 13:18:53;;;;;;;3.58;1.20;;;21.70;99.90;;;;;;5094043;28;20028;-66
2022/08/17 13:21:20;;;;;;;6.03;1.70;;;21.50;99.90;;;;;;5093554;28;20036;-66
2022/08/17 13:24:16;;;;;;;7.18;1.50;;;21.50;99.90;;;;;;5093770;28;20617;-66
2022/08/17 13:27:00;;;;;;;5.32;1.45;;;21.50;99.90;;;;;;5093663;28;20032;-66
2022/08/17 13:29:34;;;;;;;4.43;1.63;;;21.50;99.90;;;;;;5093431;28;20025;-66
2022/08/17 13:32:03;;;;;;;3.92;1.50;;;21.60;99.90;;;;;;5093257;28;20016;-66
2022/08/17 13:34:28;;;;;;;5.55;1.38;;;21.60;99.90;;;;;;5093370;28;20442;-66
2022/08/17 13:37:25;;;;;;;3.08;1.27;;;21.80;99.90;;;;;;5093794;28;20388;-66
2022/08/17 13:40:10;;;;;;;3.10;1.38;;;21.90;99.90;;;;;;5093320;28;20024;-66
2022/08/17 13:42:43;;;;;;;5.45;1.73;;;21.80;99.90;;;;;;5093224;28;20028;-66
2022/08/17 13:45:27;;;;;;;4.80;1.67;;;21.70;99.90;;;;;;5092973;28;20082;-66